createdAt,value
2019-04-04T00:00:52.982Z,8.1
2019-04-04T00:01:53.062Z,8.1
2019-04-04T00:02:53.123Z,8.1
2019-04-04T00:03:53.182Z,8.1
2019-04-04T00:04:53.250Z,8.1
2019-04-04T00:05:53.289Z,8.1
2019-04-04T00:06:53.355Z,8.1
2019-04-04T00:07:53.405Z,8.1
2019-04-04T00:08:53.462Z,8.1
2019-04-04T00:09:53.513Z,8.1
2019-04-04T00:10:53.597Z,8.1
2019-04-04T00:11:53.667Z,8.1
2019-04-04T00:12:53.728Z,8.1
2019-04-04T00:13:53.835Z,8.1
2019-04-04T00:14:53.831Z,8.1
2019-04-04T00:15:53.879Z,8.1
2019-04-04T00:16:53.980Z,8.1
2019-04-04T00:17:54.331Z,8.1
2019-04-04T00:18:54.040Z,8.1
2019-04-04T00:19:54.111Z,8.1
2019-04-04T00:20:54.150Z,8.1
2019-04-04T00:21:54.196Z,8
2019-04-04T00:22:54.257Z,8
2019-04-04T00:23:54.318Z,8
2019-04-04T00:24:54.371Z,8
2019-04-04T00:25:54.458Z,8
2019-04-04T00:26:54.527Z,8
2019-04-04T00:27:54.625Z,8
2019-04-04T00:28:54.626Z,8
2019-04-04T00:29:54.711Z,8
2019-04-04T00:30:54.726Z,8
2019-04-04T00:31:54.800Z,8
2019-04-04T00:32:54.857Z,8
2019-04-04T00:33:55.816Z,8
2019-04-04T00:34:54.951Z,8
2019-04-04T00:35:55.012Z,8
2019-04-04T00:36:55.091Z,8
2019-04-04T00:37:55.126Z,7.9
2019-04-04T00:38:55.149Z,7.9
2019-04-04T00:39:55.259Z,7.9
2019-04-04T00:40:55.317Z,7.9
2019-04-04T00:41:55.365Z,7.9
2019-04-04T00:42:55.370Z,7.9
2019-04-04T00:43:55.444Z,7.9
2019-04-04T00:44:55.718Z,7.9
2019-04-04T00:45:55.560Z,7.9
2019-04-04T00:46:55.604Z,7.9
2019-04-04T00:47:55.660Z,7.9
2019-04-04T00:48:55.721Z,7.9
2019-04-04T00:49:55.785Z,7.9
2019-04-04T00:50:55.841Z,7.9
2019-04-04T00:51:55.910Z,7.9
2019-04-04T00:52:56.007Z,7.9
2019-04-04T00:53:56.007Z,7.9
2019-04-04T00:54:56.075Z,7.9
2019-04-04T00:55:56.141Z,7.9
2019-04-04T00:56:56.191Z,7.9
2019-04-04T00:57:56.246Z,7.8
2019-04-04T00:58:56.295Z,7.8
2019-04-04T00:59:56.451Z,7.8
2019-04-04T01:00:56.395Z,7.8
2019-04-04T01:01:56.971Z,7.8
2019-04-04T01:02:58.251Z,7.8
2019-04-04T01:03:56.570Z,7.8
2019-04-04T01:04:56.646Z,7.8
2019-04-04T01:05:56.727Z,7.8
2019-04-04T01:06:56.765Z,7.8
2019-04-04T01:07:56.770Z,7.8
2019-04-04T01:08:56.842Z,7.8
2019-04-04T01:09:56.902Z,7.8
2019-04-04T01:10:56.970Z,7.8
2019-04-04T01:11:57.018Z,7.8
2019-04-04T01:12:57.094Z,7.8
2019-04-04T01:13:57.728Z,7.8
2019-04-04T01:14:58.068Z,7.8
2019-04-04T01:15:57.218Z,7.8
2019-04-04T01:16:57.242Z,7.8
2019-04-04T01:17:57.309Z,7.7
2019-04-04T01:18:57.368Z,7.7
2019-04-04T01:19:57.455Z,7.7
2019-04-04T01:20:57.541Z,7.7
2019-04-04T01:21:57.589Z,7.7
2019-04-04T01:22:57.640Z,7.7
2019-04-04T01:23:58.292Z,7.7
2019-04-04T01:24:58.990Z,7.7
2019-04-04T01:25:58.017Z,7.7
2019-04-04T01:26:57.819Z,7.7
2019-04-04T01:27:57.928Z,7.7
2019-04-04T01:28:57.943Z,7.7
2019-04-04T01:29:58.037Z,7.7
2019-04-04T01:30:58.045Z,7.6
2019-04-04T01:31:58.115Z,7.6
2019-04-04T01:32:58.177Z,7.7
2019-04-04T01:33:58.214Z,7.7
2019-04-04T01:34:58.286Z,7.7
2019-04-04T01:35:58.538Z,7.7
2019-04-04T01:36:58.357Z,7.7
2019-04-04T01:37:58.841Z,7.8
2019-04-04T01:38:27.024Z,7.8
2019-04-04T01:39:00.116Z,7.8
2019-04-04T01:39:59.866Z,7.8
2019-04-04T01:40:58.635Z,7.8
2019-04-04T01:41:58.657Z,7.8
2019-04-04T01:42:58.758Z,7.9
2019-04-04T01:44:04.748Z,7.9
2019-04-04T01:44:58.926Z,8
2019-04-04T01:45:58.952Z,8.1
2019-04-04T01:46:58.940Z,8.1
2019-04-04T01:47:58.994Z,8.1
2019-04-04T01:48:59.025Z,8.1
2019-04-04T01:49:59.073Z,8.1
2019-04-04T01:50:59.158Z,8.1
2019-04-04T01:51:59.196Z,8.1
2019-04-04T01:52:59.974Z,8.2
2019-04-04T01:54:00.970Z,8.2
2019-04-04T01:55:02.943Z,8.2
2019-04-04T01:55:59.649Z,8.2
2019-04-04T01:56:59.488Z,8.2
2019-04-04T01:57:59.705Z,8.2
2019-04-04T01:58:59.588Z,8.3
2019-04-04T01:59:59.655Z,8.3
2019-04-04T02:00:59.800Z,8.3
2019-04-04T02:01:59.926Z,8.3
2019-04-04T02:02:59.827Z,8.3
2019-04-04T02:03:59.844Z,8.4
2019-04-04T02:04:59.960Z,8.4
2019-04-04T02:06:00.090Z,8.4
2019-04-04T02:07:00.011Z,8.4
2019-04-04T02:08:00.833Z,8.4
2019-04-04T02:09:02.445Z,8.4
2019-04-04T02:10:00.671Z,8.4
2019-04-04T02:11:00.575Z,8.4
2019-04-04T02:12:00.883Z,8.4
2019-04-04T02:13:00.965Z,8.4
2019-04-04T02:14:00.597Z,8.4
2019-04-04T02:15:00.602Z,8.4
2019-04-04T02:16:00.599Z,8.5
2019-04-04T02:17:00.685Z,8.5
2019-04-04T02:18:00.692Z,8.5
2019-04-04T02:19:00.778Z,8.5
2019-04-04T02:20:00.815Z,8.5
2019-04-04T02:21:00.861Z,8.5
2019-04-04T02:22:00.912Z,8.5
2019-04-04T02:23:01.366Z,8.5
2019-04-04T02:24:01.461Z,8.5
2019-04-04T02:25:03.023Z,8.5
2019-04-04T02:26:01.125Z,8.5
2019-04-04T02:27:01.159Z,8.5
2019-04-04T02:28:01.233Z,8.5
2019-04-04T02:29:01.273Z,8.5
2019-04-04T02:30:01.306Z,8.5
2019-04-04T02:31:01.400Z,8.5
2019-04-04T02:32:01.424Z,8.5
2019-04-04T02:33:01.492Z,8.5
2019-04-04T02:34:05.060Z,8.5
2019-04-04T02:35:01.686Z,8.5
2019-04-04T02:36:01.641Z,8.5
2019-04-04T02:37:01.670Z,8.5
2019-04-04T02:38:01.755Z,8.5
2019-04-04T02:39:01.760Z,8.5
2019-04-04T02:40:01.838Z,8.4
2019-04-04T02:41:01.912Z,8.4
2019-04-04T02:42:01.965Z,8.4
2019-04-04T02:43:02.048Z,8.5
2019-04-04T02:44:02.091Z,8.4
2019-04-04T02:45:05.006Z,8.4
2019-04-04T02:46:02.153Z,8.4
2019-04-04T02:47:02.193Z,8.4
2019-04-04T02:48:02.265Z,8.4
2019-04-04T02:49:02.300Z,8.4
2019-04-04T02:50:02.437Z,8.4
2019-04-04T02:51:06.824Z,8.4
2019-04-04T02:52:02.474Z,8.4
2019-04-04T02:53:02.528Z,8.4
2019-04-04T02:54:02.572Z,8.3
2019-04-04T02:55:02.608Z,8.3
2019-04-04T02:56:03.641Z,8.3
2019-04-04T02:57:02.722Z,8.3
2019-04-04T02:58:02.820Z,8.3
2019-04-04T02:59:02.868Z,8.3
2019-04-04T03:00:02.903Z,8.3
2019-04-04T03:01:02.975Z,8.3
2019-04-04T03:02:05.721Z,8.3
2019-04-04T03:03:03.153Z,8.3
2019-04-04T03:04:03.137Z,8.3
2019-04-04T03:05:03.201Z,8.3
2019-04-04T03:06:03.283Z,8.3
2019-04-04T03:07:03.305Z,8.2
2019-04-04T03:08:04.509Z,8.2
2019-04-04T03:09:03.422Z,8.2
2019-04-04T03:10:03.487Z,8.2
2019-04-04T03:11:03.564Z,8.2
2019-04-04T03:12:03.609Z,8.2
2019-04-04T03:13:03.686Z,8.2
2019-04-04T03:14:04.655Z,8.2
2019-04-04T03:15:03.800Z,8.2
2019-04-04T03:16:03.826Z,8.2
2019-04-04T03:17:03.885Z,8.1
2019-04-04T03:18:05.335Z,8.1
2019-04-04T03:19:04.031Z,8.1
2019-04-04T03:20:04.025Z,8.1
2019-04-04T03:21:04.151Z,8.1
2019-04-04T03:22:04.118Z,8.1
2019-04-04T03:23:04.171Z,8.1
2019-04-04T03:24:06.375Z,8.1
2019-04-04T03:25:04.306Z,8.1
2019-04-04T03:26:04.371Z,8.1
2019-04-04T03:27:04.405Z,8.1
2019-04-04T03:28:04.577Z,8.1
2019-04-04T03:29:05.788Z,8.1
2019-04-04T03:30:04.708Z,8.1
2019-04-04T03:31:04.773Z,8.1
2019-04-04T03:32:04.818Z,8.1
2019-04-04T03:33:04.824Z,8.1
2019-04-04T03:34:10.807Z,8.1
2019-04-04T03:35:04.848Z,8.1
2019-04-04T03:36:04.897Z,8.1
2019-04-04T03:37:06.310Z,8.1
2019-04-04T03:38:05.011Z,8.1
2019-04-04T03:39:05.285Z,8.1
2019-04-04T03:40:05.148Z,8.1
2019-04-04T03:41:05.212Z,8.1
2019-04-04T03:42:07.964Z,8.1
2019-04-04T03:43:05.306Z,8.1
2019-04-04T03:44:05.395Z,8.1
2019-04-04T03:45:05.422Z,8.1
2019-04-04T03:46:05.502Z,8.1
2019-04-04T03:47:07.637Z,8.1
2019-04-04T03:48:05.578Z,8.1
2019-04-04T03:49:05.657Z,8.1
2019-04-04T03:50:05.695Z,8.1
2019-04-04T03:51:05.765Z,8.1
2019-04-04T03:52:07.577Z,8.1
2019-04-04T03:53:05.883Z,8
2019-04-04T03:54:05.954Z,8
2019-04-04T03:55:06.018Z,8
2019-04-04T03:56:06.010Z,8
2019-04-04T03:57:06.117Z,8
2019-04-04T03:58:06.138Z,8
2019-04-04T03:59:06.192Z,8
2019-04-04T04:00:07.444Z,8
2019-04-04T04:01:06.261Z,8
2019-04-04T04:02:06.355Z,8
2019-04-04T04:03:06.391Z,8
2019-04-04T04:04:06.488Z,7.9
2019-04-04T04:05:06.521Z,7.9
2019-04-04T04:06:08.806Z,7.9
2019-04-04T04:07:06.616Z,7.9
2019-04-04T04:08:06.646Z,7.9
2019-04-04T04:09:06.762Z,7.9
2019-04-04T04:10:06.768Z,7.9
2019-04-04T04:11:06.826Z,7.9
2019-04-04T04:12:07.789Z,7.9
2019-04-04T04:13:06.925Z,7.9
2019-04-04T04:14:07.010Z,7.9
2019-04-04T04:15:07.002Z,7.9
2019-04-04T04:16:07.198Z,7.9
2019-04-04T04:18:07.440Z,7.9
2019-04-04T04:19:07.352Z,7.9
2019-04-04T04:20:07.363Z,7.9
2019-04-04T04:22:07.474Z,7.8
2019-04-04T04:23:07.462Z,7.8
2019-04-04T04:24:07.596Z,7.8
2019-04-04T04:25:07.568Z,7.8
2019-04-04T04:26:09.296Z,7.8
2019-04-04T04:27:07.661Z,7.8
2019-04-04T04:28:07.766Z,7.8
2019-04-04T04:29:08.099Z,7.8
2019-04-04T04:30:07.835Z,7.8
2019-04-04T04:31:08.023Z,7.8
2019-04-04T04:32:07.972Z,7.8
2019-04-04T04:33:07.984Z,7.8
2019-04-04T04:34:08.128Z,7.8
2019-04-04T04:35:09.029Z,7.8
2019-04-04T04:37:08.207Z,7.7
2019-04-04T04:38:08.296Z,7.7
2019-04-04T04:39:08.321Z,7.7
2019-04-04T04:41:08.478Z,7.7
2019-04-04T04:42:08.539Z,7.7
2019-04-04T04:43:08.723Z,7.7
2019-04-04T04:44:08.702Z,7.7
2019-04-04T04:45:10.832Z,7.7
2019-04-04T04:46:09.697Z,7.7
2019-04-04T04:47:08.709Z,7.6
2019-04-04T04:48:08.754Z,7.6
2019-04-04T04:49:08.877Z,7.6
2019-04-04T04:50:09.850Z,7.6
2019-04-04T04:52:08.959Z,7.6
2019-04-04T04:53:09.005Z,7.6
2019-04-04T04:54:09.100Z,7.6
2019-04-04T04:55:11.935Z,7.6
2019-04-04T04:56:13.461Z,7.6
2019-04-04T04:57:09.204Z,7.6
2019-04-04T04:59:11.050Z,7.6
2019-04-04T05:00:09.480Z,7.6
2019-04-04T05:01:09.605Z,7.6
2019-04-04T05:02:09.615Z,7.6
2019-04-04T05:03:09.544Z,7.6
2019-04-04T05:04:09.618Z,7.6
2019-04-04T05:05:09.640Z,7.6
2019-04-04T05:06:09.722Z,7.6
2019-04-04T05:07:09.800Z,7.6
2019-04-04T05:08:10.598Z,7.6
2019-04-04T05:09:09.977Z,7.6
2019-04-04T05:10:09.977Z,7.6
2019-04-04T05:11:10.038Z,7.6
2019-04-04T05:12:10.025Z,7.6
2019-04-04T05:13:10.245Z,7.6
2019-04-04T05:14:10.133Z,7.6
2019-04-04T05:15:10.176Z,7.6
2019-04-04T05:16:10.279Z,7.6
2019-04-04T05:17:10.690Z,7.6
2019-04-04T05:18:11.852Z,7.6
2019-04-04T05:19:10.413Z,7.6
2019-04-04T05:20:10.486Z,7.6
2019-04-04T05:21:10.570Z,7.6
2019-04-04T05:22:10.731Z,7.6
2019-04-04T05:23:11.188Z,7.6
2019-04-04T05:24:10.660Z,7.6
2019-04-04T05:25:10.704Z,7.6
2019-04-04T05:26:10.870Z,7.6
2019-04-04T05:27:10.901Z,7.6
2019-04-04T05:28:11.455Z,7.6
2019-04-04T05:29:13.012Z,7.6
2019-04-04T05:30:11.025Z,7.6
2019-04-04T05:31:11.276Z,7.6
2019-04-04T05:32:11.138Z,7.6
2019-04-04T05:33:11.283Z,7.6
2019-04-04T05:34:11.185Z,7.6
2019-04-04T05:35:11.300Z,7.6
2019-04-04T05:36:11.454Z,7.6
2019-04-04T05:37:11.451Z,7.6
2019-04-04T05:38:12.415Z,7.6
2019-04-04T05:39:11.488Z,7.6
2019-04-04T05:40:11.589Z,7.6
2019-04-04T05:41:11.611Z,7.6
2019-04-04T05:42:11.685Z,7.6
2019-04-04T05:43:14.666Z,7.6
2019-04-04T05:44:11.704Z,7.7
2019-04-04T05:45:13.873Z,7.7
2019-04-04T05:46:11.816Z,7.7
2019-04-04T05:47:11.932Z,7.7
2019-04-04T05:48:11.957Z,7.7
2019-04-04T05:49:12.001Z,7.7
2019-04-04T05:50:12.194Z,7.7
2019-04-04T05:51:14.854Z,7.7
2019-04-04T05:52:12.242Z,7.7
2019-04-04T05:53:12.245Z,7.7
2019-04-04T05:54:12.312Z,7.7
2019-04-04T05:55:12.377Z,7.7
2019-04-04T05:57:12.516Z,7.8
2019-04-04T05:58:12.598Z,7.8
2019-04-04T05:59:12.602Z,7.8
2019-04-04T06:00:16.519Z,7.8
2019-04-04T06:01:12.817Z,7.8
2019-04-04T06:02:12.841Z,7.8
2019-04-04T06:03:13.007Z,7.8
2019-04-04T06:04:12.871Z,7.8
2019-04-04T06:05:12.952Z,7.8
2019-04-04T06:06:13.017Z,7.8
2019-04-04T06:07:16.106Z,7.9
2019-04-04T06:08:13.148Z,7.9
2019-04-04T06:09:14.610Z,7.9
2019-04-04T06:10:13.238Z,7.9
2019-04-04T06:11:13.360Z,7.9
2019-04-04T06:12:13.361Z,7.9
2019-04-04T06:13:13.420Z,7.9
2019-04-04T06:14:13.472Z,7.9
2019-04-04T06:15:13.581Z,7.9
2019-04-04T06:16:13.517Z,7.9
2019-04-04T06:17:13.676Z,7.9
2019-04-04T06:18:13.946Z,8
2019-04-04T06:19:14.748Z,8
2019-04-04T06:20:15.727Z,8
2019-04-04T06:22:21.849Z,8
2019-04-04T06:22:23.990Z,8
2019-04-04T06:23:14.028Z,8
2019-04-04T06:24:14.462Z,8.1
2019-04-04T06:25:14.125Z,8.1
2019-04-04T06:26:14.307Z,8.1
2019-04-04T06:27:14.555Z,8.1
2019-04-04T06:28:16.006Z,8.1
2019-04-04T06:29:15.105Z,8.1
2019-04-04T06:30:14.470Z,8.1
2019-04-04T06:31:14.473Z,8.1
2019-04-04T06:32:15.050Z,8.2
2019-04-04T06:33:14.876Z,8.2
2019-04-04T06:34:14.721Z,8.2
2019-04-04T06:35:15.421Z,8.2
2019-04-04T06:36:17.518Z,8.2
2019-04-04T06:37:14.974Z,8.3
2019-04-04T06:38:15.385Z,8.3
2019-04-04T06:39:15.078Z,8.3
2019-04-04T06:40:15.163Z,8.3
2019-04-04T06:41:15.979Z,8.3
2019-04-04T06:42:15.251Z,8.3
2019-04-04T06:43:15.739Z,8.3
2019-04-04T06:44:15.629Z,8.3
2019-04-04T06:45:16.195Z,8.4
2019-04-04T06:46:18.347Z,8.4
2019-04-04T06:47:16.514Z,8.4
2019-04-04T06:48:15.731Z,8.4
2019-04-04T06:49:15.496Z,8.4
2019-04-04T06:50:15.431Z,8.4
2019-04-04T06:51:16.080Z,8.5
2019-04-04T06:52:16.211Z,8.5
2019-04-04T06:53:15.552Z,8.5
2019-04-04T06:54:15.588Z,8.6
2019-04-04T06:55:15.692Z,8.6
2019-04-04T06:56:15.724Z,8.6
2019-04-04T06:57:15.784Z,8.6
2019-04-04T06:58:17.084Z,8.6
2019-04-04T06:59:15.927Z,8.7
2019-04-04T07:00:16.627Z,8.7
2019-04-04T07:01:16.063Z,8.8
2019-04-04T07:02:16.122Z,8.8
2019-04-04T07:03:16.132Z,8.8
2019-04-04T07:04:17.339Z,8.8
2019-04-04T07:05:16.433Z,8.9
2019-04-04T07:06:16.308Z,8.9
2019-04-04T07:07:16.372Z,8.9
2019-04-04T07:08:16.426Z,8.9
2019-04-04T07:09:18.938Z,9
2019-04-04T07:10:16.523Z,9
2019-04-04T07:11:21.328Z,9
2019-04-04T07:12:22.458Z,9.1
2019-04-04T07:13:21.843Z,9.1
2019-04-04T07:14:16.744Z,9.1
2019-04-04T07:15:16.857Z,9.1
2019-04-04T07:16:16.835Z,9.1
2019-04-04T07:17:16.871Z,9.2
2019-04-04T07:18:17.076Z,9.2
2019-04-04T07:19:17.160Z,9.3
2019-04-04T07:20:17.556Z,9.3
2019-04-04T07:21:19.631Z,9.3
2019-04-04T07:22:20.245Z,9.3
2019-04-04T07:23:17.255Z,9.4
2019-04-04T07:24:17.314Z,9.4
2019-04-04T07:25:17.348Z,9.4
2019-04-04T07:26:17.453Z,9.4
2019-04-04T07:27:17.455Z,9.4
2019-04-04T07:28:18.963Z,9.4
2019-04-04T07:29:17.584Z,9.5
2019-04-04T07:30:17.628Z,9.5
2019-04-04T07:31:17.682Z,9.5
2019-04-04T07:32:17.718Z,9.5
2019-04-04T07:33:17.840Z,9.6
2019-04-04T07:34:17.840Z,9.6
2019-04-04T07:35:20.808Z,9.6
2019-04-04T07:36:18.087Z,9.6
2019-04-04T07:37:18.103Z,9.6
2019-04-04T07:38:18.049Z,9.7
2019-04-04T07:39:18.088Z,9.7
2019-04-04T07:40:20.232Z,9.7
2019-04-04T07:41:18.185Z,9.8
2019-04-04T07:42:18.249Z,9.8
2019-04-04T07:43:19.260Z,9.8
2019-04-04T07:44:18.357Z,9.8
2019-04-04T07:45:18.430Z,9.8
2019-04-04T07:46:18.463Z,9.9
2019-04-04T07:47:18.534Z,9.9
2019-04-04T07:48:18.702Z,9.9
2019-04-04T07:49:18.654Z,9.9
2019-04-04T07:50:18.707Z,9.9
2019-04-04T07:51:18.823Z,10
2019-04-04T07:52:18.863Z,10
2019-04-04T07:53:18.918Z,10
2019-04-04T07:54:18.980Z,10.1
2019-04-04T07:55:19.047Z,10.1
2019-04-04T07:56:19.190Z,10.1
2019-04-04T07:57:19.694Z,10.1
2019-04-04T07:58:19.214Z,10.1
2019-04-04T07:59:19.238Z,10.2
2019-04-04T08:00:19.266Z,10.2
2019-04-04T08:01:19.348Z,10.2
2019-04-04T08:02:19.361Z,10.2
2019-04-04T08:03:19.398Z,10.2
2019-04-04T08:04:19.510Z,10.3
2019-04-04T08:05:19.506Z,10.3
2019-04-04T08:06:19.521Z,10.3
2019-04-04T08:07:19.603Z,10.3
2019-04-04T08:08:19.653Z,10.4
2019-04-04T08:09:19.717Z,10.4
2019-04-04T08:10:21.005Z,10.4
2019-04-04T08:11:19.817Z,10.4
2019-04-04T08:12:19.842Z,10.4
2019-04-04T08:13:19.961Z,10.4
2019-04-04T08:14:20.081Z,10.4
2019-04-04T08:15:20.071Z,10.5
2019-04-04T08:16:20.147Z,10.5
2019-04-04T08:17:20.176Z,10.5
2019-04-04T08:18:20.242Z,10.5
2019-04-04T08:19:20.281Z,10.4
2019-04-04T08:20:20.335Z,10.4
2019-04-04T08:21:20.380Z,10.4
2019-04-04T08:22:20.624Z,10.4
2019-04-04T08:23:20.603Z,10.5
2019-04-04T08:24:20.646Z,10.5
2019-04-04T08:25:20.649Z,10.5
2019-04-04T08:26:20.732Z,10.5
2019-04-04T08:27:20.757Z,10.5
2019-04-04T08:28:20.899Z,10.5
2019-04-04T08:29:20.943Z,10.5
2019-04-04T08:30:20.972Z,10.6
2019-04-04T08:31:20.997Z,10.6
2019-04-04T08:32:21.166Z,10.6
2019-04-04T08:33:21.262Z,10.7
2019-04-04T08:34:21.185Z,10.7
2019-04-04T08:35:21.249Z,10.8
2019-04-04T08:36:21.295Z,10.8
2019-04-04T08:37:21.862Z,10.9
2019-04-04T08:38:21.415Z,11
2019-04-04T08:39:22.388Z,11
2019-04-04T08:40:21.493Z,11.1
2019-04-04T08:41:22.052Z,11.1
2019-04-04T08:42:22.773Z,11.1
2019-04-04T08:43:23.204Z,11.2
2019-04-04T08:44:21.759Z,11.2
2019-04-04T08:45:22.602Z,11.3
2019-04-04T08:46:22.004Z,11.3
2019-04-04T08:47:22.274Z,11.3
2019-04-04T08:48:22.001Z,11.4
2019-04-04T08:49:23.773Z,11.4
2019-04-04T08:50:22.598Z,11.5
2019-04-04T08:51:24.308Z,11.5
2019-04-04T08:52:22.240Z,11.6
2019-04-04T08:53:22.726Z,11.6
2019-04-04T08:54:24.929Z,11.7
2019-04-04T08:55:24.891Z,11.8
2019-04-04T08:56:23.202Z,11.8
2019-04-04T08:57:25.190Z,11.9
2019-04-04T08:58:24.653Z,11.9
2019-04-04T08:59:22.610Z,12
2019-04-04T09:00:24.355Z,12.1
2019-04-04T09:01:22.815Z,12.1
2019-04-04T09:02:22.703Z,12.2
2019-04-04T09:03:22.695Z,12.3
2019-04-04T09:04:24.132Z,12.3
2019-04-04T09:05:22.985Z,12.3
2019-04-04T09:06:22.877Z,12.4
2019-04-04T09:07:22.969Z,12.4
2019-04-04T09:08:22.970Z,12.5
2019-04-04T09:09:23.061Z,12.6
2019-04-04T09:10:23.202Z,12.6
2019-04-04T09:11:23.632Z,12.7
2019-04-04T09:12:23.237Z,12.8
2019-04-04T09:13:23.322Z,12.8
2019-04-04T09:14:23.334Z,12.9
2019-04-04T09:15:23.392Z,13
2019-04-04T09:16:23.433Z,13
2019-04-04T09:17:23.502Z,13.1
2019-04-04T09:18:23.533Z,13.2
2019-04-04T09:19:23.581Z,13.2
2019-04-04T09:20:23.608Z,13.2
2019-04-04T09:21:23.642Z,13.3
2019-04-04T09:22:24.187Z,13.2
2019-04-04T09:23:23.772Z,13.2
2019-04-04T09:24:23.800Z,13.1
2019-04-04T09:25:23.875Z,13.1
2019-04-04T09:26:28.243Z,13.1
2019-04-04T09:27:23.967Z,13.1
2019-04-04T09:28:24.039Z,13.2
2019-04-04T09:29:24.088Z,13.2
2019-04-04T09:30:24.145Z,13.2
2019-04-04T09:31:24.248Z,13.2
2019-04-04T09:32:24.264Z,13.2
2019-04-04T09:33:24.317Z,13.3
2019-04-04T09:34:24.364Z,13.4
2019-04-04T09:35:24.399Z,13.5
2019-04-04T09:36:24.476Z,13.4
2019-04-04T09:37:24.533Z,13.5
2019-04-04T09:38:24.604Z,13.5
2019-04-04T09:39:24.688Z,13.6
2019-04-04T09:40:24.718Z,13.7
2019-04-04T09:41:24.802Z,13.8
2019-04-04T09:42:24.813Z,13.8
2019-04-04T09:43:24.924Z,13.9
2019-04-04T09:44:24.952Z,13.9
2019-04-04T09:45:26.000Z,13.9
2019-04-04T09:46:26.002Z,13.9
2019-04-04T09:47:26.066Z,14
2019-04-04T09:48:26.100Z,14
2019-04-04T09:49:26.198Z,14.1
2019-04-04T09:50:26.358Z,14.2
2019-04-04T09:51:26.277Z,14.3
2019-04-04T09:52:26.338Z,14.3
2019-04-04T09:53:26.348Z,14.4
2019-04-04T09:54:26.428Z,14.5
2019-04-04T09:55:26.518Z,14.5
2019-04-04T09:56:43.017Z,14.6
2019-04-04T09:57:26.622Z,14.7
2019-04-04T09:58:26.760Z,14.8
2019-04-04T09:59:26.789Z,14.9
2019-04-04T10:00:26.828Z,15
2019-04-04T10:01:26.896Z,15
2019-04-04T10:02:27.071Z,15.1
2019-04-04T10:03:27.331Z,15.2
2019-04-04T10:04:27.147Z,15.3
2019-04-04T10:05:27.227Z,15.3
2019-04-04T10:06:27.223Z,15.3
2019-04-04T10:07:27.242Z,15.4
2019-04-04T10:08:27.303Z,15.5
2019-04-04T10:09:27.615Z,15.6
2019-04-04T10:10:27.367Z,15.6
2019-04-04T10:11:27.399Z,15.7
2019-04-04T10:12:29.468Z,15.8
2019-04-04T10:13:27.548Z,15.8
2019-04-04T10:14:27.553Z,15.9
2019-04-04T10:15:27.622Z,15.9
2019-04-04T10:16:27.643Z,16.1
2019-04-04T10:17:27.725Z,16.1
2019-04-04T10:18:27.745Z,16.1
2019-04-04T10:19:27.783Z,16.1
2019-04-04T10:20:27.803Z,16
2019-04-04T10:21:27.969Z,16
2019-04-04T10:22:27.938Z,16.1
2019-04-04T10:23:27.988Z,16.2
2019-04-04T10:24:28.041Z,16.3
2019-04-04T10:25:28.058Z,16.3
2019-04-04T10:26:44.471Z,16.4
2019-04-04T10:27:28.189Z,16.6
2019-04-04T10:28:28.292Z,16.7
2019-04-04T10:29:28.293Z,16.8
2019-04-04T10:30:28.349Z,16.9
2019-04-04T10:31:28.384Z,17
2019-04-04T10:32:28.412Z,17
2019-04-04T10:33:28.442Z,17
2019-04-04T10:34:28.577Z,17.1
2019-04-04T10:35:28.593Z,17.1
2019-04-04T10:36:28.649Z,17.1
2019-04-04T10:37:28.730Z,17.1
2019-04-04T10:38:28.775Z,17.2
2019-04-04T10:39:31.264Z,17.2
2019-04-04T10:40:28.869Z,17.3
2019-04-04T10:41:28.900Z,17.4
2019-04-04T10:42:28.952Z,17.5
2019-04-04T10:43:29.092Z,17.5
2019-04-04T10:44:29.065Z,17.5
2019-04-04T10:45:29.097Z,17.5
2019-04-04T10:46:29.147Z,17.6
2019-04-04T10:47:29.205Z,17.7
2019-04-04T10:48:29.252Z,17.8
2019-04-04T10:49:29.288Z,18
2019-04-04T10:50:29.353Z,18
2019-04-04T10:51:29.439Z,18.1
2019-04-04T10:52:29.462Z,18.1
2019-04-04T10:53:29.522Z,18.2
2019-04-04T10:54:29.608Z,18.2
2019-04-04T10:55:29.600Z,18.3
2019-04-04T10:56:29.682Z,18.4
2019-04-04T10:57:29.720Z,18.5
2019-04-04T10:58:29.797Z,18.6
2019-04-04T10:59:29.825Z,18.7
2019-04-04T11:00:29.903Z,18.8
2019-04-04T11:01:29.947Z,18.8
2019-04-04T11:02:30.008Z,18.9
2019-04-04T11:03:30.068Z,18.9
2019-04-04T11:04:30.101Z,18.8
2019-04-04T11:05:30.139Z,18.8
2019-04-04T11:06:30.203Z,18.8
2019-04-04T11:07:30.287Z,18.9
2019-04-04T11:08:30.340Z,19
2019-04-04T11:09:41.250Z,19.1
2019-04-04T11:10:30.454Z,19.2
2019-04-04T11:11:30.508Z,19.3
2019-04-04T11:12:30.655Z,19.3
2019-04-04T11:13:33.605Z,19.3
2019-04-04T11:14:30.682Z,19.4
2019-04-04T11:15:30.742Z,19.5
2019-04-04T11:16:30.801Z,19.5
2019-04-04T11:17:30.858Z,19.6
2019-04-04T11:18:30.912Z,19.8
2019-04-04T11:19:31.618Z,19.8
2019-04-04T11:20:31.018Z,19.8
2019-04-04T11:21:31.061Z,19.8
2019-04-04T11:22:31.120Z,19.8
2019-04-04T11:23:31.165Z,19.9
2019-04-04T11:24:31.540Z,20
2019-04-04T11:25:31.768Z,20
2019-04-04T11:26:31.299Z,20
2019-04-04T11:27:31.627Z,20.1
2019-04-04T11:28:31.757Z,20.2
2019-04-04T11:29:31.839Z,20.3
2019-04-04T11:30:31.961Z,20.3
2019-04-04T11:31:31.821Z,20.3
2019-04-04T11:32:31.788Z,20.4
2019-04-04T11:33:31.765Z,20.5
2019-04-04T11:34:31.837Z,20.6
2019-04-04T11:35:32.036Z,20.5
2019-04-04T11:36:32.061Z,20.6
2019-04-04T11:37:31.806Z,20.6
2019-04-04T11:38:31.866Z,20.6
2019-04-04T11:39:31.908Z,20.4
2019-04-04T11:40:31.968Z,20.4
2019-04-04T11:41:32.036Z,20.5
2019-04-04T11:42:32.093Z,20.5
2019-04-04T11:43:32.198Z,20.6
2019-04-04T11:44:32.225Z,20.6
2019-04-04T11:45:32.252Z,20.6
2019-04-04T11:46:32.269Z,20.6
2019-04-04T11:47:32.360Z,20.6
2019-04-04T11:48:32.402Z,20.7
2019-04-04T11:49:32.457Z,20.8
2019-04-04T11:50:32.507Z,20.9
2019-04-04T11:51:32.553Z,20.9
2019-04-04T11:52:32.709Z,20.9
2019-04-04T11:53:32.636Z,20.9
2019-04-04T11:54:32.704Z,20.8
2019-04-04T11:55:32.765Z,20.8
2019-04-04T11:56:32.805Z,20.9
2019-04-04T11:57:32.868Z,20.9
2019-04-04T11:58:32.948Z,20.9
2019-04-04T11:59:32.993Z,20.9
2019-04-04T12:00:33.008Z,20.9
2019-04-04T12:01:33.085Z,20.9
2019-04-04T12:02:33.133Z,21
2019-04-04T12:03:33.217Z,21
2019-04-04T12:04:33.291Z,21.1
2019-04-04T12:05:33.283Z,21
2019-04-04T12:06:33.371Z,21
2019-04-04T12:07:33.386Z,21
2019-04-04T12:08:33.470Z,21
2019-04-04T12:09:33.541Z,21.1
2019-04-04T12:10:33.621Z,21.1
2019-04-04T12:11:33.674Z,21.2
2019-04-04T12:12:33.731Z,21.1
2019-04-04T12:13:33.845Z,21.1
2019-04-04T12:14:33.830Z,21.1
2019-04-04T12:15:33.903Z,21.2
2019-04-04T12:16:33.956Z,21.2
2019-04-04T12:17:33.997Z,21.1
2019-04-04T12:18:34.089Z,21.1
2019-04-04T12:19:34.123Z,21.2
2019-04-04T12:20:34.143Z,21.1
2019-04-04T12:21:34.289Z,21.2
2019-04-04T12:22:34.305Z,21.2
2019-04-04T12:23:34.330Z,21.2
2019-04-04T12:24:34.366Z,21.1
2019-04-04T12:25:34.437Z,21
2019-04-04T12:26:34.483Z,21.1
2019-04-04T12:27:34.574Z,21.1
2019-04-04T12:28:34.718Z,21
2019-04-04T12:29:34.718Z,21.1
2019-04-04T12:30:34.736Z,21
2019-04-04T12:31:34.823Z,20.9
2019-04-04T12:32:34.843Z,21
2019-04-04T12:33:34.897Z,21
2019-04-04T12:34:34.947Z,21.2
2019-04-04T12:35:35.010Z,21.2
2019-04-04T12:36:35.040Z,21.2
2019-04-04T12:37:35.110Z,21.1
2019-04-04T12:38:35.159Z,20.9
2019-04-04T12:39:35.199Z,20.9
2019-04-04T12:40:35.243Z,21
2019-04-04T12:41:35.294Z,21.1
2019-04-04T12:42:35.326Z,21.2
2019-04-04T12:43:35.410Z,21.2
2019-04-04T12:44:35.435Z,21.3
2019-04-04T12:45:35.493Z,21.2
2019-04-04T12:46:35.551Z,21.2
2019-04-04T12:47:35.583Z,21.3
2019-04-04T12:48:35.641Z,21.3
2019-04-04T12:49:35.725Z,21.4
2019-04-04T12:50:35.755Z,21.3
2019-04-04T12:51:35.816Z,21.3
2019-04-04T12:52:36.938Z,21.4
2019-04-04T12:53:35.941Z,21.5
2019-04-04T12:54:36.365Z,21.4
2019-04-04T12:55:36.040Z,21.4
2019-04-04T12:56:36.273Z,21.6
2019-04-04T12:57:36.484Z,21.6
2019-04-04T12:58:36.348Z,21.7
2019-04-04T12:59:36.199Z,21.5
2019-04-04T13:00:36.300Z,21.6
2019-04-04T13:01:36.347Z,21.6
2019-04-04T13:02:36.409Z,21.4
2019-04-04T13:03:36.435Z,21.3
2019-04-04T13:04:36.514Z,21.3
2019-04-04T13:05:36.548Z,21.4
2019-04-04T13:06:36.606Z,21.3
2019-04-04T13:07:36.648Z,21.2
2019-04-04T13:08:36.688Z,21.3
2019-04-04T13:09:36.741Z,21.3
2019-04-04T13:10:36.793Z,21.3
2019-04-04T13:11:36.850Z,21.2
2019-04-04T13:12:36.893Z,21.2
2019-04-04T13:13:38.278Z,21.1
2019-04-04T13:14:37.120Z,21.1
2019-04-04T13:15:37.053Z,21.2
2019-04-04T13:16:37.125Z,21
2019-04-04T13:17:37.188Z,21
2019-04-04T13:18:37.236Z,20.9
2019-04-04T13:19:37.318Z,20.8
2019-04-04T13:20:37.357Z,20.9
2019-04-04T13:21:37.446Z,20.9
2019-04-04T13:22:37.624Z,20.9
2019-04-04T13:23:37.592Z,20.9
2019-04-04T13:24:37.607Z,20.8
2019-04-04T13:25:37.681Z,20.8
2019-04-04T13:26:37.744Z,20.7
2019-04-04T13:27:37.893Z,20.6
2019-04-04T13:28:37.892Z,20.7
2019-04-04T13:29:37.936Z,20.7
2019-04-04T13:30:38.000Z,20.6
2019-04-04T13:31:38.025Z,20.7
2019-04-04T13:32:38.107Z,20.7
2019-04-04T13:33:38.145Z,20.8
2019-04-04T13:34:38.217Z,20.7
2019-04-04T13:35:38.577Z,20.7
2019-04-04T13:36:38.400Z,20.8
2019-04-04T13:37:38.376Z,20.7
2019-04-04T13:38:38.444Z,20.7
2019-04-04T13:39:38.514Z,20.8
2019-04-04T13:40:45.076Z,20.7
2019-04-04T13:41:38.624Z,20.6
2019-04-04T13:42:38.709Z,20.6
2019-04-04T13:43:38.872Z,20.7
2019-04-04T13:44:38.866Z,20.5
2019-04-04T13:45:38.936Z,20.5